Polynesia — A8RO9 — position and weather

sailwx.info

Track history (hours):
 
Tides and Currents Weather Stations Pressure Air Temp Water Temp Dewpoint Dewpoint Depression Visibility Wind Speed Wind Dir Waves Ship Positions

Polynesia

Last reported at 2018-Jun-13 22:30 UTC. Time now 2018-Jun-21 00:59 UTC.
Position N 09°13' W 079°55'.

Length 161 m; draft 9.2 m.

Type: Ship (hazmat cat A). MMSI: 636091690.

Date/timePositionNaut miles runAvg speedWind from/ knotsBaromVisibWave heightAir tempDewpointWater temp
2018-Jun-13 22:30N 09°13' W 079°55'3 6.9
2018-Jun-13 22:00N 09°16' W 079°55'0 0.4
2018-Jun-13 21:29N 09°16' W 079°55'0 0.5
2018-Jun-13 21:00N 09°17' W 079°55'1 1.8
2018-Jun-13 20:30N 09°18' W 079°55'3 5.0
2018-Jun-13 20:00N 09°20' W 079°55'2 3.8
2018-Jun-13 19:28N 09°22' W 079°56'0 0.0
2018-Jun-13 18:58N 09°22' W 079°56'0 0.0
2018-Jun-13 18:28N 09°22' W 079°56'0 0.0
2018-Jun-13 17:58N 09°22' W 079°56'0 0.0
2018-Jun-13 17:28N 09°22' W 079°56'0 0.1
2018-Jun-13 16:58N 09°22' W 079°56'0 0.0
2018-Jun-13 16:28N 09°22' W 079°56'0 0.0
2018-Jun-13 15:58N 09°22' W 079°56'0 0.0
2018-Jun-13 15:28N 09°22' W 079°56'0 0.0
2018-Jun-13 14:58N 09°22' W 079°56'0 0.1
2018-Jun-13 14:28N 09°22' W 079°56'0 0.2
2018-Jun-13 13:58N 09°22' W 079°56'0 0.1
2018-Jun-13 13:28N 09°22' W 079°56'0 0.1
2018-Jun-13 12:55N 09°22' W 079°56'1 3.0
2018-Jun-13 12:30N 09°23' W 079°55'2 5.0
2018-Jun-13 12:00N 09°25' W 079°57'0 0.1
2018-Jun-13 11:17N 09°25' W 079°57'0 0.2
2018-Jun-13 10:59N 09°25' W 079°57'0 0.3
2018-Jun-13 10:29N 09°25' W 079°57'0 0.2
2018-Jun-13 10:00N 09°25' W 079°57'3 5.1
2018-Jun-13 09:30N 09°27' W 079°55'710.5
2018-Jun-13 08:53N 09°33' W 079°52'24912.1
2018-Jun-12 12:22N 10°18' W 075°43'513.6
2018-Jun-12 12:00N 10°19' W 075°38'611.6
2018-Jun-12 11:30N 10°20' W 075°33'4 7.0
2018-Jun-12 11:00N 10°23' W 075°31'0 0.1
2018-Jun-12 10:30N 10°23' W 075°31'0 0.0
2018-Jun-12 09:57N 10°23' W 075°31'0 0.0
2018-Jun-12 09:30N 10°23' W 075°31'0 0.0
2018-Jun-12 08:57N 10°23' W 075°31'0 0.0
2018-Jun-12 08:27N 10°23' W 075°31'0 0.0
2018-Jun-12 07:57N 10°23' W 075°31'0 0.0
2018-Jun-12 07:27N 10°23' W 075°31'0 0.0
2018-Jun-12 07:00N 10°23' W 075°31'0 0.0
2018-Jun-12 06:30N 10°23' W 075°31'0 0.0
2018-Jun-12 06:00N 10°23' W 075°31'0 0.0
2018-Jun-12 05:27N 10°23' W 075°31'0 0.0
2018-Jun-12 05:00N 10°23' W 075°31'0 0.0
2018-Jun-12 04:27N 10°23' W 075°31'0 0.9
2018-Jun-12 03:59N 10°23' W 075°31'2 3.5
2018-Jun-12 03:30N 10°23' W 075°32'1 1.9
2018-Jun-12 03:00N 10°24' W 075°32'0 0.0
2018-Jun-12 02:30N 10°24' W 075°32'0 0.0
2018-Jun-12 02:00N 10°24' W 075°32'0 0.0
2018-Jun-12 01:18N 10°24' W 075°32'0 0.0
2018-Jun-12 00:54N 10°24' W 075°32'0 0.0
2018-Jun-12 00:18N 10°24' W 075°32'0 0.0
2018-Jun-11 22:18N 10°24' W 075°32'0 0.0
2018-Jun-11 22:00N 10°24' W 075°32'0 0.0
2018-Jun-11 21:30N 10°24' W 075°32'0 0.0
2018-Jun-11 21:00N 10°24' W 075°32'1 1.4
2018-Jun-11 20:28N 10°24' W 075°32'3 5.9
2018-Jun-11 20:01N 10°21' W 075°32'510.5
2018-Jun-11 19:30N 10°19' W 075°37'4 8.2
2018-Jun-11 19:00N 10°21' W 075°41'0 0.7
2018-Jun-11 18:30N 10°21' W 075°41'0 0.5
2018-Jun-11 18:00N 10°21' W 075°41'0 0.4
2018-Jun-11 17:30N 10°21' W 075°41'0 0.4
2018-Jun-11 16:57N 10°21' W 075°41'1 1.1
2018-Jun-11 16:30N 10°21' W 075°41'1 1.4
2018-Jun-11 16:00N 10°20' W 075°42'1 1.4
2018-Jun-11 15:30N 10°20' W 075°43'1 1.2
2018-Jun-11 14:59N 10°20' W 075°43'1 1.5
2018-Jun-11 14:30N 10°19' W 075°44'1 1.5
2018-Jun-11 14:00N 10°19' W 075°45'6 3.2
2018-Jun-11 12:08N 10°24' W 075°40'  
2018-Jun-06 23:25N 21°57' W 087°29'813.0
2018-Jun-06 22:49N 21°58' W 087°38'412.9
2018-Jun-06 22:31N 21°58' W 087°42'713.1
2018-Jun-06 22:00N 21°58' W 087°49'713.2
2018-Jun-06 21:28N 21°59' W 087°57'1513.2
2018-Jun-06 20:21N 21°60' W 088°12'3813.4
2018-Jun-06 17:30N 22°02' W 088°54'713.6
2018-Jun-06 16:58N 22°03' W 089°01'4513.6
2018-Jun-06 13:41N 21°52' W 089°48'1813.7
2018-Jun-06 12:23N 21°47' W 090°06'513.7
2018-Jun-06 12:00N 21°45' W 090°12'813.7
2018-Jun-06 11:25N 21°43' W 090°20'613.7
2018-Jun-06 11:00N 21°41' W 090°26'713.6
2018-Jun-06 10:30N 21°39' W 090°33'713.4
2018-Jun-06 09:59N 21°37' W 090°40'713.3
2018-Jun-06 09:27N 21°34' W 090°47'9413.1
2018-Jun-06 02:20N 20°45' W 092°12'21614.2
2018-Jun-05 11:08N 19°14' W 095°40'214.2
2018-Jun-05 11:00N 19°13' W 095°42'713.6
2018-Jun-05 10:30N 19°12' W 095°49'713.3
2018-Jun-05 10:01N 19°12' W 095°56'713.5
2018-Jun-05 09:28N 19°11' W 096°04'4 9.0
2018-Jun-05 08:59N 19°13' W 096°08'0 0.6
2018-Jun-05 08:29N 19°13' W 096°08'0 0.0
2018-Jun-05 07:47N 19°13' W 096°08'0 0.0
2018-Jun-05 07:29N 19°13' W 096°08'0 0.0
2018-Jun-05 06:59N 19°13' W 096°08'0 0.0
2018-Jun-05 06:29N 19°13' W 096°08'0 0.0
2018-Jun-05 05:59N 19°13' W 096°08'0 0.0
2018-Jun-05 05:23N 19°13' W 096°08'0 0.0
2018-Jun-05 04:59N 19°13' W 096°08'0 0.0
2018-Jun-05 04:29N 19°13' W 096°08'0 0.0
2018-Jun-05 03:59N 19°13' W 096°08'0 0.0
2018-Jun-05 03:29N 19°13' W 096°08'0 0.0
2018-Jun-05 02:53N 19°13' W 096°08'0 0.0
2018-Jun-05 02:29N 19°13' W 096°08'0 0.0
2018-Jun-05 01:59N 19°13' W 096°08'0 0.0
2018-Jun-05 01:29N 19°13' W 096°08'0 0.0
2018-Jun-05 00:59N 19°13' W 096°08'0 0.0
2018-Jun-05 00:29N 19°13' W 096°08'0 0.0
2018-Jun-04 23:59N 19°13' W 096°08'0 0.0
2018-Jun-04 23:29N 19°13' W 096°08'0 0.0
2018-Jun-04 22:59N 19°13' W 096°08'0 0.0
2018-Jun-04 22:29N 19°13' W 096°08'0 0.0
2018-Jun-04 21:59N 19°13' W 096°08'0 0.0
2018-Jun-04 21:29N 19°13' W 096°08'0 0.0
2018-Jun-04 20:53N 19°13' W 096°08'0 0.0
2018-Jun-04 20:29N 19°13' W 096°08'0 0.0
2018-Jun-04 19:59N 19°13' W 096°08'0 0.0
2018-Jun-04 19:29N 19°13' W 096°08'0 0.0
2018-Jun-04 18:53N 19°13' W 096°08'0 0.0
2018-Jun-04 18:23N 19°13' W 096°08'0 0.0
2018-Jun-04 17:56N 19°13' W 096°08'0 0.0
2018-Jun-04 17:29N 19°13' W 096°08'1 2.9
2018-Jun-04 17:00N 19°12' W 096°07'4 7.8
2018-Jun-04 16:30N 19°11' W 096°03'2 4.9
2018-Jun-04 16:00N 19°13' W 096°01'4 8.3
2018-Jun-04 15:30N 19°17' W 096°00'4 9.0
2018-Jun-04 15:00N 19°21' W 096°01'5 9.7
2018-Jun-04 14:30N 19°26' W 096°03'713.5
2018-Jun-04 13:59N 19°32' W 096°06'713.5
2018-Jun-04 13:30N 19°38' W 096°08'  
Track history (hours):
 
Tides and Currents Weather Stations Pressure Air Temp Water Temp Dewpoint Dewpoint Depression Visibility Wind Speed Wind Dir Waves Ship Positions

Polynesia

Last reported at 2018-Jun-13 22:30 UTC. Time now 2018-Jun-21 00:59 UTC.
Position N 09°13' W 079°55'.

Length 161 m; draft 9.2 m.

Type: Ship (hazmat cat A). MMSI: 636091690.

Date/timePositionNaut miles runAvg speedWind from/ knotsBaromVisibWave heightAir tempDewpointWater temp
2018-Jun-13 22:30N 09°13' W 079°55'3 6.9
2018-Jun-13 22:00N 09°16' W 079°55'0 0.4
2018-Jun-13 21:29N 09°16' W 079°55'0 0.5
2018-Jun-13 21:00N 09°17' W 079°55'1 1.8
2018-Jun-13 20:30N 09°18' W 079°55'3 5.0
2018-Jun-13 20:00N 09°20' W 079°55'2 3.8
2018-Jun-13 19:28N 09°22' W 079°56'0 0.0
2018-Jun-13 18:58N 09°22' W 079°56'0 0.0
2018-Jun-13 18:28N 09°22' W 079°56'0 0.0
2018-Jun-13 17:58N 09°22' W 079°56'0 0.0
2018-Jun-13 17:28N 09°22' W 079°56'0 0.1
2018-Jun-13 16:58N 09°22' W 079°56'0 0.0
2018-Jun-13 16:28N 09°22' W 079°56'0 0.0
2018-Jun-13 15:58N 09°22' W 079°56'0 0.0
2018-Jun-13 15:28N 09°22' W 079°56'0 0.0
2018-Jun-13 14:58N 09°22' W 079°56'0 0.1
2018-Jun-13 14:28N 09°22' W 079°56'0 0.2
2018-Jun-13 13:58N 09°22' W 079°56'0 0.1
2018-Jun-13 13:28N 09°22' W 079°56'0 0.1
2018-Jun-13 12:55N 09°22' W 079°56'1 3.0
2018-Jun-13 12:30N 09°23' W 079°55'2 5.0
2018-Jun-13 12:00N 09°25' W 079°57'0 0.1
2018-Jun-13 11:17N 09°25' W 079°57'0 0.2
2018-Jun-13 10:59N 09°25' W 079°57'0 0.3
2018-Jun-13 10:29N 09°25' W 079°57'0 0.2
2018-Jun-13 10:00N 09°25' W 079°57'3 5.1
2018-Jun-13 09:30N 09°27' W 079°55'710.5
2018-Jun-13 08:53N 09°33' W 079°52'24912.1
2018-Jun-12 12:22N 10°18' W 075°43'513.6
2018-Jun-12 12:00N 10°19' W 075°38'611.6
2018-Jun-12 11:30N 10°20' W 075°33'4 7.0
2018-Jun-12 11:00N 10°23' W 075°31'0 0.1
2018-Jun-12 10:30N 10°23' W 075°31'0 0.0
2018-Jun-12 09:57N 10°23' W 075°31'0 0.0
2018-Jun-12 09:30N 10°23' W 075°31'0 0.0
2018-Jun-12 08:57N 10°23' W 075°31'0 0.0
2018-Jun-12 08:27N 10°23' W 075°31'0 0.0
2018-Jun-12 07:57N 10°23' W 075°31'0 0.0
2018-Jun-12 07:27N 10°23' W 075°31'0 0.0
2018-Jun-12 07:00N 10°23' W 075°31'0 0.0
2018-Jun-12 06:30N 10°23' W 075°31'0 0.0
2018-Jun-12 06:00N 10°23' W 075°31'0 0.0
2018-Jun-12 05:27N 10°23' W 075°31'0 0.0
2018-Jun-12 05:00N 10°23' W 075°31'0 0.0
2018-Jun-12 04:27N 10°23' W 075°31'0 0.9
2018-Jun-12 03:59N 10°23' W 075°31'2 3.5
2018-Jun-12 03:30N 10°23' W 075°32'1 1.9
2018-Jun-12 03:00N 10°24' W 075°32'0 0.0
2018-Jun-12 02:30N 10°24' W 075°32'0 0.0
2018-Jun-12 02:00N 10°24' W 075°32'0 0.0
2018-Jun-12 01:18N 10°24' W 075°32'0 0.0
2018-Jun-12 00:54N 10°24' W 075°32'0 0.0
2018-Jun-12 00:18N 10°24' W 075°32'0 0.0
2018-Jun-11 22:18N 10°24' W 075°32'0 0.0
2018-Jun-11 22:00N 10°24' W 075°32'0 0.0
2018-Jun-11 21:30N 10°24' W 075°32'0 0.0
2018-Jun-11 21:00N 10°24' W 075°32'1 1.4
2018-Jun-11 20:28N 10°24' W 075°32'3 5.9
2018-Jun-11 20:01N 10°21' W 075°32'510.5
2018-Jun-11 19:30N 10°19' W 075°37'4 8.2
2018-Jun-11 19:00N 10°21' W 075°41'0 0.7
2018-Jun-11 18:30N 10°21' W 075°41'0 0.5
2018-Jun-11 18:00N 10°21' W 075°41'0 0.4
2018-Jun-11 17:30N 10°21' W 075°41'0 0.4
2018-Jun-11 16:57N 10°21' W 075°41'1 1.1
2018-Jun-11 16:30N 10°21' W 075°41'1 1.4
2018-Jun-11 16:00N 10°20' W 075°42'1 1.4
2018-Jun-11 15:30N 10°20' W 075°43'1 1.2
2018-Jun-11 14:59N 10°20' W 075°43'1 1.5
2018-Jun-11 14:30N 10°19' W 075°44'1 1.5
2018-Jun-11 14:00N 10°19' W 075°45'6 3.2
2018-Jun-11 12:08N 10°24' W 075°40'  
2018-Jun-06 23:25N 21°57' W 087°29'813.0
2018-Jun-06 22:49N 21°58' W 087°38'412.9
2018-Jun-06 22:31N 21°58' W 087°42'713.1
2018-Jun-06 22:00N 21°58' W 087°49'713.2
2018-Jun-06 21:28N 21°59' W 087°57'1513.2
2018-Jun-06 20:21N 21°60' W 088°12'3813.4
2018-Jun-06 17:30N 22°02' W 088°54'713.6
2018-Jun-06 16:58N 22°03' W 089°01'4513.6
2018-Jun-06 13:41N 21°52' W 089°48'1813.7
2018-Jun-06 12:23N 21°47' W 090°06'513.7
2018-Jun-06 12:00N 21°45' W 090°12'813.7
2018-Jun-06 11:25N 21°43' W 090°20'613.7
2018-Jun-06 11:00N 21°41' W 090°26'713.6
2018-Jun-06 10:30N 21°39' W 090°33'713.4
2018-Jun-06 09:59N 21°37' W 090°40'713.3
2018-Jun-06 09:27N 21°34' W 090°47'9413.1
2018-Jun-06 02:20N 20°45' W 092°12'21614.2
2018-Jun-05 11:08N 19°14' W 095°40'214.2
2018-Jun-05 11:00N 19°13' W 095°42'713.6
2018-Jun-05 10:30N 19°12' W 095°49'713.3
2018-Jun-05 10:01N 19°12' W 095°56'713.5
2018-Jun-05 09:28N 19°11' W 096°04'4 9.0
2018-Jun-05 08:59N 19°13' W 096°08'0 0.6
2018-Jun-05 08:29N 19°13' W 096°08'0 0.0
2018-Jun-05 07:47N 19°13' W 096°08'0 0.0
2018-Jun-05 07:29N 19°13' W 096°08'0 0.0
2018-Jun-05 06:59N 19°13' W 096°08'0 0.0
2018-Jun-05 06:29N 19°13' W 096°08'0 0.0
2018-Jun-05 05:59N 19°13' W 096°08'0 0.0
2018-Jun-05 05:23N 19°13' W 096°08'0 0.0
2018-Jun-05 04:59N 19°13' W 096°08'0 0.0
2018-Jun-05 04:29N 19°13' W 096°08'0 0.0
2018-Jun-05 03:59N 19°13' W 096°08'0 0.0
2018-Jun-05 03:29N 19°13' W 096°08'0 0.0
2018-Jun-05 02:53N 19°13' W 096°08'0 0.0
2018-Jun-05 02:29N 19°13' W 096°08'0 0.0
2018-Jun-05 01:59N 19°13' W 096°08'0 0.0
2018-Jun-05 01:29N 19°13' W 096°08'0 0.0
2018-Jun-05 00:59N 19°13' W 096°08'0 0.0
2018-Jun-05 00:29N 19°13' W 096°08'0 0.0
2018-Jun-04 23:59N 19°13' W 096°08'0 0.0
2018-Jun-04 23:29N 19°13' W 096°08'0 0.0
2018-Jun-04 22:59N 19°13' W 096°08'0 0.0
2018-Jun-04 22:29N 19°13' W 096°08'0 0.0
2018-Jun-04 21:59N 19°13' W 096°08'0 0.0
2018-Jun-04 21:29N 19°13' W 096°08'0 0.0
2018-Jun-04 20:53N 19°13' W 096°08'0 0.0
2018-Jun-04 20:29N 19°13' W 096°08'0 0.0
2018-Jun-04 19:59N 19°13' W 096°08'0 0.0
2018-Jun-04 19:29N 19°13' W 096°08'0 0.0
2018-Jun-04 18:53N 19°13' W 096°08'0 0.0
2018-Jun-04 18:23N 19°13' W 096°08'0 0.0
2018-Jun-04 17:56N 19°13' W 096°08'0 0.0
2018-Jun-04 17:29N 19°13' W 096°08'1 2.9
2018-Jun-04 17:00N 19°12' W 096°07'4 7.8
2018-Jun-04 16:30N 19°11' W 096°03'2 4.9
2018-Jun-04 16:00N 19°13' W 096°01'4 8.3
2018-Jun-04 15:30N 19°17' W 096°00'4 9.0
2018-Jun-04 15:00N 19°21' W 096°01'5 9.7
2018-Jun-04 14:30N 19°26' W 096°03'713.5
2018-Jun-04 13:59N 19°32' W 096°06'713.5
2018-Jun-04 13:30N 19°38' W 096°08'  

Dump ship's entire track history